Time;durP1;ratioP1;P1;durP2;ratioP2;P2;SDS_P1;SDS_P2;PMS_P1;PMS_P2;Temp;Humidity;BMP_temperature;BMP_pressure;BME280_temperature;BME280_humidity;BME280_pressure;Samples;Min_cycle;Max_cycle;Signal;HPM_P1;HPM_P2
2023/05/18 00:01:32;;;;;;;;;;;;;;;22.15;45.44;100304.44;7310381;19;129555;-38
2023/05/18 00:03:57;;;;;;;;;;;;;;;22.15;45.15;100304.44;7315120;19;129115;-38
2023/05/18 00:06:24;;;;;;;;;;;;;;;22.16;45.04;100311.34;7315671;19;130495;-38
2023/05/18 00:08:50;;;;;;;;;;;;;;;22.18;45.17;100298.97;7315145;19;129187;-38
2023/05/18 00:11:16;;;;;;;;;;;;;;;22.20;45.09;100297.03;7313723;19;129261;-38
2023/05/18 00:13:41;;;;;;;;;;;;;;;22.20;45.06;100308.34;7315052;19;131160;-38
2023/05/18 00:16:06;;;;;;;;;;;;;;;22.17;45.10;100313.00;7314353;19;129707;-39
2023/05/18 00:18:32;;;;;;;;;;;;;;;22.16;45.67;100313.97;7315680;19;129115;-39
2023/05/18 00:20:58;;;;;;;;;;;;;;;22.15;45.24;100310.50;7313454;19;128899;-39
2023/05/18 00:23:28;;;;;;;;;;;;;;;22.16;45.56;100317.41;7313267;19;129462;-38
2023/05/18 00:25:54;;;;;;;;;;;;;;;22.08;45.48;100298.06;7314874;19;129889;-38
2023/05/18 00:28:19;;;;;;;;;;;;;;;22.20;45.15;100321.44;7315311;19;129380;-37
2023/05/18 00:30:45;;;;;;;;;;;;;;;22.20;45.17;100320.59;7313767;19;129437;-38
2023/05/18 00:33:10;;;;;;;;;;;;;;;22.17;45.06;100318.22;7314755;19;129279;-38
2023/05/18 00:35:35;;;;;;;;;;;;;;;22.17;45.54;100320.84;7313850;19;129443;-38
2023/05/18 00:38:00;;;;;;;;;;;;;;;22.20;45.35;100323.22;7315610;19;128844;-39
2023/05/18 00:40:27;;;;;;;;;;;;;;;22.19;45.43;100311.09;7313937;19;130087;-38
2023/05/18 00:42:52;;;;;;;;;;;;;;;22.17;44.78;100324.31;7313350;19;130234;-38
2023/05/18 00:45:17;;;;;;;;;;;;;;;22.20;45.39;100323.22;7314543;19;129838;-38
2023/05/18 00:47:42;;;;;;;;;;;;;;;22.21;44.81;100324.91;7314367;19;129146;-38
2023/05/18 00:50:08;;;;;;;;;;;;;;;22.19;45.52;100326.81;7314184;19;129270;-38
2023/05/18 00:52:34;;;;;;;;;;;;;;;22.19;44.63;100329.41;7313114;19;130238;-38
2023/05/18 00:54:59;;;;;;;;;;;;;;;22.20;45.11;100324.06;7314408;19;130380;-39
2023/05/18 00:57:24;;;;;;;;;;;;;;;22.17;44.93;100331.31;7313494;19;129611;-39
2023/05/18 00:59:50;;;;;;;;;;;;;;;22.17;44.85;100328.72;7312819;19;129000;-38
2023/05/18 01:02:16;;;;;;;;;;;;;;;22.18;45.49;100340.88;7311292;19;129583;-38
2023/05/18 01:04:41;;;;;;;;;;;;;;;22.22;44.76;100337.03;7314450;19;130176;-39
2023/05/18 01:07:07;;;;;;;;;;;;;;;22.21;45.32;100335.38;7313640;19;129515;-38
2023/05/18 01:09:33;;;;;;;;;;;;;;;22.24;44.62;100340.34;7313217;19;129484;-38
2023/05/18 01:12:20;;;;;;;;;;;;;;;22.22;45.07;100334.41;7311321;19;129813;-38
2023/05/18 01:14:52;;;;;;;;;;;;;;;22.19;44.66;100337.28;7313432;19;130274;-38
2023/05/18 01:17:33;;;;;;;;;;;;;;;22.21;44.98;100340.59;7312835;19;129282;-38
2023/05/18 01:20:06;;;;;;;;;;;;;;;22.23;45.27;100343.94;7313670;19;129550;-39
2023/05/18 01:22:37;;;;;;;;;;;;;;;22.18;44.66;100343.47;7311990;19;129246;-38
2023/05/18 01:25:18;;;;;;;;;;;;;;;22.19;45.21;100337.28;7312999;19;130109;-38
2023/05/18 01:27:45;;;;;;;;;;;;;;;22.25;44.76;100347.25;7312237;19;129035;-38
2023/05/18 01:30:12;;;;;;;;;;;;;;;22.27;45.28;100350.56;7312793;19;129609;-38
2023/05/18 01:32:38;;;;;;;;;;;;;;;22.20;44.86;100341.53;7311658;19;129629;-39
2023/05/18 01:35:04;;;;;;;;;;;;;;;22.22;44.70;100350.13;7313436;19;130229;-38
2023/05/18 01:37:29;;;;;;;;;;;;;;;22.19;45.17;100350.38;7313427;19;129496;-38
2023/05/18 01:39:55;;;;;;;;;;;;;;;22.10;44.77;100335.44;7312495;19;129417;-39
2023/05/18 01:42:24;;;;;;;;;;;;;;;22.20;45.42;100355.47;7311597;19;130222;-38
2023/05/18 01:44:52;;;;;;;;;;;;;;;22.20;44.67;100350.25;7312550;19;131457;-38
2023/05/18 01:47:17;;;;;;;;;;;;;;;22.22;44.66;100347.50;7312598;19;128982;-39
2023/05/18 01:50:05;;;;;;;;;;;;;;;22.18;45.22;100343.47;7312475;19;130000;-38
2023/05/18 01:52:46;;;;;;;;;;;;;;;22.19;44.56;100350.38;7309017;19;129518;-38
2023/05/18 01:55:13;;;;;;;;;;;;;;;22.19;45.18;100353.00;7312488;19;129273;-38
2023/05/18 01:57:40;;;;;;;;;;;;;;;22.23;45.29;100354.41;7313674;19;129499;-38
2023/05/18 02:00:08;;;;;;;;;;;;;;;22.25;44.89;100352.47;7310000;19;129619;-39
2023/05/18 02:02:34;;;;;;;;;;;;;;;22.23;45.18;100354.41;7310245;19;129766;-38
2023/05/18 02:04:59;;;;;;;;;;;;;;;22.25;44.83;100355.94;7312091;19;129302;-39
2023/05/18 02:07:24;;;;;;;;;;;;;;;22.22;44.89;100347.50;7311611;19;129271;-38
2023/05/18 02:09:50;;;;;;;;;;;;;;;22.26;44.94;100354.16;7310585;19;129951;-38
2023/05/18 02:12:15;;;;;;;;;;;;;;;22.24;45.22;100353.44;7309103;19;129957;-38
2023/05/18 02:14:40;;;;;;;;;;;;;;;22.28;45.14;100347.00;7311441;19;129673;-38
2023/05/18 02:17:06;;;;;;;;;;;;;;;22.24;45.24;100353.44;7311383;19;129569;-39
2023/05/18 02:19:31;;;;;;;;;;;;;;;22.28;44.81;100357.50;7311123;19;129808;-38
2023/05/18 02:21:56;;;;;;;;;;;;;;;22.25;44.81;100358.56;7309528;19;129578;-39
2023/05/18 02:24:23;;;;;;;;;;;;;;;22.28;45.00;100357.50;7310345;19;129624;-38
2023/05/18 02:26:49;;;;;;;;;;;;;;;22.26;44.61;100354.16;7311162;19;128853;-38
2023/05/18 02:29:14;;;;;;;;;;;;;;;22.21;44.68;100351.94;7311226;19;129106;-38
2023/05/18 02:31:39;;;;;;;;;;;;;;;22.26;44.62;100359.41;7309407;19;130508;-38
2023/05/18 02:34:05;;;;;;;;;;;;;;;22.22;45.16;100365.84;7312017;19;129962;-39
2023/05/18 02:36:38;;;;;;;;;;;;;;;22.24;45.12;100370.00;7311089;19;129223;-38
2023/05/18 02:39:06;;;;;;;;;;;;;;;22.29;44.49;100369.63;7311557;19;128971;-38
2023/05/18 02:41:32;;;;;;;;;;;;;;;22.26;44.83;100365.47;7310052;19;129037;-38
2023/05/18 02:43:57;;;;;;;;;;;;;;;22.30;44.83;100376.50;7308899;19;131924;-38
2023/05/18 02:46:22;;;;;;;;;;;;;;;22.26;44.79;100370.72;7311188;19;128935;-38
2023/05/18 02:48:48;;;;;;;;;;;;;;;22.23;44.66;100378.00;7309895;19;129083;-38
2023/05/18 02:51:13;;;;;;;;;;;;;;;22.25;45.23;100376.06;7309543;19;129402;-39
2023/05/18 02:53:38;;;;;;;;;;;;;;;22.27;44.41;100382.00;7311305;19;129843;-39
2023/05/18 02:56:04;;;;;;;;;;;;;;;22.29;44.63;100374.84;7310990;19;129137;-38
2023/05/18 02:58:29;;;;;;;;;;;;;;;22.14;44.43;100360.38;7309049;19;129425;-38
2023/05/18 03:00:55;;;;;;;;;;;;;;;22.26;44.38;100369.88;7309364;19;130028;-38
2023/05/18 03:03:22;;;;;;;;;;;;;;;22.25;44.51;100381.28;7308281;19;129284;-39
2023/05/18 03:05:47;;;;;;;;;;;;;;;22.24;44.73;100377.03;7309525;19;128919;-38
2023/05/18 03:08:13;;;;;;;;;;;;;;;22.25;45.11;100373.44;7308971;19;129424;-38
2023/05/18 03:10:38;;;;;;;;;;;;;;;22.24;45.18;100384.88;7309077;19;131037;-38
2023/05/18 03:13:03;;;;;;;;;;;;;;;22.22;45.17;100387.63;7310419;19;129322;-38
2023/05/18 03:15:31;;;;;;;;;;;;;;;22.23;44.45;100383.22;7309952;19;129253;-38
2023/05/18 03:17:59;;;;;;;;;;;;;;;22.25;44.96;100383.91;7309732;19;129079;-39
2023/05/18 03:20:25;;;;;;;;;;;;;;;22.28;45.10;100384.50;7308895;19;129179;-39
2023/05/18 03:22:50;;;;;;;;;;;;;;;22.25;45.15;100378.69;7307454;19;129407;-39
2023/05/18 03:25:15;;;;;;;;;;;;;;;22.26;44.91;100389.06;7310617;19;129117;-38
2023/05/18 03:27:41;;;;;;;;;;;;;;;22.32;44.68;100395.56;7310135;19;129782;-39
2023/05/18 03:30:07;;;;;;;;;;;;;;;22.30;44.56;100387.00;7309110;19;130186;-40
2023/05/18 03:32:32;;;;;;;;;;;;;;;22.27;44.53;100397.72;7307864;19;130939;-39
2023/05/18 03:34:59;;;;;;;;;;;;;;;22.28;44.82;100399.41;7308658;19;129174;-40
2023/05/18 03:37:25;;;;;;;;;;;;;;;22.23;44.20;100383.22;7307400;19;129245;-40
2023/05/18 03:39:50;;;;;;;;;;;;;;;22.28;44.53;100394.16;7308383;19;129628;-39
2023/05/18 03:42:15;;;;;;;;;;;;;;;22.33;44.89;100398.06;7306878;19;129414;-41
2023/05/18 03:44:41;;;;;;;;;;;;;;;22.27;44.37;100405.59;7308917;19;129483;-39
2023/05/18 03:47:10;;;;;;;;;;;;;;;22.29;44.97;100404.53;7305388;19;130138;-39
2023/05/18 03:49:35;;;;;;;;;;;;;;;22.28;44.81;100399.41;7308142;19;129171;-37
2023/05/18 03:52:02;;;;;;;;;;;;;;;22.15;44.41;100390.88;7307723;19;129198;-42
2023/05/18 03:54:27;;;;;;;;;;;;;;;22.30;44.99;100410.56;7309411;19;129536;-40
2023/05/18 03:56:52;;;;;;;;;;;;;;;22.22;44.66;100395.47;7308318;19;128981;-39
2023/05/18 03:59:17;;;;;;;;;;;;;;;22.29;44.88;100411.53;7307881;19;129596;-39
2023/05/18 04:01:43;;;;;;;;;;;;;;;22.29;44.36;100408.91;7306654;19;129427;-39
2023/05/18 04:04:08;;;;;;;;;;;;;;;22.28;44.90;100402.03;7305885;19;129497;-42
2023/05/18 04:06:34;;;;;;;;;;;;;;;22.30;44.43;100411.41;7308432;19;129519;-40
2023/05/18 04:09:03;;;;;;;;;;;;;;;22.22;44.44;100403.34;7307965;19;130854;-41
2023/05/18 04:11:28;;;;;;;;;;;;;;;22.31;44.58;100414.88;7307763;19;130033;-42
2023/05/18 04:13:53;;;;;;;;;;;;;;;22.33;44.50;100412.97;7307614;19;129218;-40
2023/05/18 04:16:20;;;;;;;;;;;;;;;22.31;44.38;100420.09;7306935;19;129983;-41
2023/05/18 04:18:45;;;;;;;;;;;;;;;22.29;45.01;100417.63;7307766;19;129580;-39
2023/05/18 04:21:11;;;;;;;;;;;;;;;22.31;44.88;100426.19;7307502;19;129757;-40
2023/05/18 04:23:37;;;;;;;;;;;;;;;22.20;44.62;100413.09;7306946;19;129154;-38
2023/05/18 04:26:03;;;;;;;;;;;;;;;22.25;44.55;100426.66;7306959;19;130046;-39
2023/05/18 04:28:29;;;;;;;;;;;;;;;22.35;44.44;100429.38;7308175;19;130331;-39
2023/05/18 04:30:54;;;;;;;;;;;;;;;22.31;44.92;100433.22;7307644;19;130332;-40
2023/05/18 04:33:19;;;;;;;;;;;;;;;22.30;44.82;100426.28;7307536;19;129557;-39
2023/05/18 04:35:45;;;;;;;;;;;;;;;22.20;44.83;100410.50;7307340;19;129651;-40
2023/05/18 04:38:10;;;;;;;;;;;;;;;22.34;44.19;100425.09;7306613;19;129221;-39
2023/05/18 04:40:36;;;;;;;;;;;;;;;22.16;44.96;100405.63;7307685;19;129815;-39
2023/05/18 04:43:03;;;;;;;;;;;;;;;22.29;44.43;100422.00;7305842;19;129657;-41
2023/05/18 04:45:28;;;;;;;;;;;;;;;22.31;44.78;100430.59;7306112;19;129973;-41
2023/05/18 04:47:54;;;;;;;;;;;;;;;22.35;44.63;100424.13;7311621;19;129483;-42
2023/05/18 04:50:20;;;;;;;;;;;;;;;22.30;44.86;100428.91;7312659;19;129544;-40
2023/05/18 04:52:49;;;;;;;;;;;;;;;22.34;44.32;100430.34;7311622;19;130157;-39
2023/05/18 04:55:21;;;;;;;;;;;;;;;22.29;44.69;100429.88;7313373;19;129900;-40
2023/05/18 04:57:52;;;;;;;;;;;;;;;22.32;44.18;100432.25;7314717;19;129924;-42
2023/05/18 05:00:18;;;;;;;;;;;;;;;22.31;44.57;100435.81;7312507;19;129745;-40
2023/05/18 05:02:43;;;;;;;;;;;;;;;22.32;44.53;100440.94;7311478;19;129127;-39
2023/05/18 05:05:08;;;;;;;;;;;;;;;22.31;44.64;100443.69;7312695;19;129236;-42
2023/05/18 05:07:34;;;;;;;;;;;;;;;22.33;44.51;100436.53;7313587;19;129598;-39
2023/05/18 05:09:59;;;;;;;;;;;;;;;22.30;44.50;100439.38;7311801;19;129540;-41
2023/05/18 05:12:24;;;;;;;;;;;;;;;22.33;44.66;100441.78;7311613;19;129135;-39
2023/05/18 05:14:49;;;;;;;;;;;;;;;22.28;44.79;100442.13;7312547;19;129560;-40
2023/05/18 05:17:15;;;;;;;;;;;;;;;22.36;44.84;100438.91;7313211;19;130305;-41
2023/05/18 05:19:41;;;;;;;;;;;;;;;22.30;44.31;100448.09;7311415;19;129657;-40
2023/05/18 05:22:06;;;;;;;;;;;;;;;22.31;44.34;100448.94;7311436;19;129145;-40
2023/05/18 05:24:31;;;;;;;;;;;;;;;22.35;44.02;100455.56;7311124;19;129674;-42
2023/05/18 05:26:56;;;;;;;;;;;;;;;22.34;44.72;100456.53;7312107;19;129686;-39
2023/05/18 05:29:22;;;;;;;;;;;;;;;22.21;44.73;100424.44;7311909;19;129492;-41
2023/05/18 05:31:47;;;;;;;;;;;;;;;22.35;44.66;100450.31;7310691;19;129109;-39
2023/05/18 05:34:12;;;;;;;;;;;;;;;22.33;44.75;100449.63;7312965;19;129807;-39
2023/05/18 05:36:38;;;;;;;;;;;;;;;22.33;44.23;100444.41;7311826;19;129599;-40
2023/05/18 05:39:03;;;;;;;;;;;;;;;22.29;45.00;100449.06;7311245;19;129846;-40
2023/05/18 05:41:29;;;;;;;;;;;;;;;22.32;44.09;100442.72;7311280;19;129330;-40
2023/05/18 05:43:55;;;;;;;;;;;;;;;22.35;44.39;100452.94;7311699;19;129439;-40
2023/05/18 05:46:20;;;;;;;;;;;;;;;22.40;44.62;100450.78;7311664;19;129443;-41
2023/05/18 05:48:46;;;;;;;;;;;;;;;22.33;44.70;100447.84;7310830;19;129807;-38
2023/05/18 05:51:11;;;;;;;;;;;;;;;22.30;44.70;100452.47;7311675;19;129320;-38
2023/05/18 05:53:36;;;;;;;;;;;;;;;22.30;44.64;100450.69;7312237;19;129124;-39
2023/05/18 05:56:01;;;;;;;;;;;;;;;22.26;44.70;100448.47;7312225;19;129307;-38
2023/05/18 05:58:27;;;;;;;;;;;;;;;22.28;44.86;100454.41;7308018;19;130318;-38
2023/05/18 06:00:52;;;;;;;;;;;;;;;22.33;44.17;100454.88;7311114;19;129003;-38
2023/05/18 06:03:17;;;;;;;;;;;;;;;22.26;44.70;100437.97;7311494;19;130823;-37
2023/05/18 06:05:42;;;;;;;;;;;;;;;22.34;44.76;100456.53;7312083;19;129462;-38
2023/05/18 06:08:08;;;;;;;;;;;;;;;22.34;44.27;100461.78;7310346;19;129596;-39
2023/05/18 06:10:33;;;;;;;;;;;;;;;22.34;44.60;100456.53;7311501;19;128934;-38
2023/05/18 06:12:58;;;;;;;;;;;;;;;22.23;44.25;100443.47;7314746;19;129077;-42
2023/05/18 06:15:24;;;;;;;;;;;;;;;22.28;44.64;100460.47;7313660;19;129513;-41
2023/05/18 06:17:49;;;;;;;;;;;;;;;22.27;45.00;100460.59;7313343;19;129233;-40
2023/05/18 06:20:14;;;;;;;;;;;;;;;22.33;44.62;100460.13;7313553;19;128884;-40
2023/05/18 06:22:40;;;;;;;;;;;;;;;22.31;44.87;100456.78;7312265;19;129204;-41
2023/05/18 06:25:05;;;;;;;;;;;;;;;22.35;44.24;100468.66;7313596;19;130327;-39
2023/05/18 06:27:31;;;;;;;;;;;;;;;22.33;44.64;100466.16;7312801;19;129730;-38
2023/05/18 06:29:56;;;;;;;;;;;;;;;22.36;44.71;100475.59;7313246;19;128880;-40
2023/05/18 06:32:21;;;;;;;;;;;;;;;22.34;44.27;100475.72;7312482;19;129941;-42
2023/05/18 06:34:49;;;;;;;;;;;;;;;22.36;44.51;100475.59;7314576;19;129401;-42
2023/05/18 06:37:14;;;;;;;;;;;;;;;22.32;44.17;100475.00;7311900;19;129698;-39
2023/05/18 06:39:40;;;;;;;;;;;;;;;22.20;44.60;100459.41;7312886;19;129110;-39
2023/05/18 06:42:05;;;;;;;;;;;;;;;22.34;44.52;100477.50;7311868;19;130304;-40
2023/05/18 06:44:30;;;;;;;;;;;;;;;22.36;44.54;100486.06;7311026;19;129201;-39
2023/05/18 06:46:56;;;;;;;;;;;;;;;22.34;44.60;100495.84;7312744;19;129220;-40
2023/05/18 06:49:21;;;;;;;;;;;;;;;22.35;44.10;100498.31;7313044;19;128888;-39
2023/05/18 06:51:46;;;;;;;;;;;;;;;22.39;44.65;100497.13;7309168;19;129597;-39
2023/05/18 06:54:11;;;;;;;;;;;;;;;22.29;44.53;100495.38;7312878;19;129701;-40
2023/05/18 06:56:37;;;;;;;;;;;;;;;22.28;44.38;100494.53;7311931;19;129707;-40
2023/05/18 06:59:02;;;;;;;;;;;;;;;22.25;44.62;100493.94;7313001;19;129084;-39
2023/05/18 07:01:27;;;;;;;;;;;;;;;22.32;44.18;100506.44;7307584;19;129114;-38
2023/05/18 07:03:53;;;;;;;;;;;;;;;22.32;44.21;100500.34;7310078;19;129187;-38
2023/05/18 07:06:18;;;;;;;;;;;;;;;22.32;44.30;100498.56;7312465;19;129280;-39
2023/05/18 07:08:44;;;;;;;;;;;;;;;22.37;44.56;100503.44;7311496;19;129264;-39
2023/05/18 07:11:09;;;;;;;;;;;;;;;22.34;44.32;100494.06;7310240;19;129317;-38
2023/05/18 07:13:34;;;;;;;;;;;;;;;22.33;44.48;100499.41;7311928;19;129542;-39
2023/05/18 07:16:00;;;;;;;;;;;;;;;22.32;44.33;100487.25;7311943;19;129309;-40
2023/05/18 07:18:25;;;;;;;;;;;;;;;22.34;44.74;100493.22;7311860;19;129258;-41
2023/05/18 07:20:50;;;;;;;;;;;;;;;22.37;44.64;100492.97;7310068;19;129435;-39
2023/05/18 07:23:16;;;;;;;;;;;;;;;22.35;44.39;100500.94;7310807;19;129204;-38
2023/05/18 07:25:41;;;;;;;;;;;;;;;22.28;44.35;100498.94;7311501;19;129447;-38
2023/05/18 07:28:06;;;;;;;;;;;;;;;22.28;44.93;100494.53;7312415;19;129550;-39
2023/05/18 07:30:32;;;;;;;;;;;;;;;22.28;44.76;100485.84;7310663;19;129378;-38
2023/05/18 07:32:57;;;;;;;;;;;;;;;22.33;44.66;100491.56;7311462;19;129549;-39
2023/05/18 07:35:24;;;;;;;;;;;;;;;22.33;44.12;100494.19;7311258;19;129697;-37
2023/05/18 07:37:50;;;;;;;;;;;;;;;22.31;44.20;100488.22;7311011;19;131003;-39
2023/05/18 07:40:16;;;;;;;;;;;;;;;22.31;44.43;100485.59;7309844;19;129587;-39
2023/05/18 07:42:42;;;;;;;;;;;;;;;22.34;44.23;100486.19;7308078;19;129227;-38
2023/05/18 07:45:07;;;;;;;;;;;;;;;22.37;44.55;100492.97;7311936;19;129106;-39
2023/05/18 07:47:33;;;;;;;;;;;;;;;22.35;44.10;100489.63;7310783;19;128955;-38
2023/05/18 07:49:58;;;;;;;;;;;;;;;22.33;44.83;100496.78;7310938;19;129526;-38
2023/05/18 07:52:24;;;;;;;;;;;;;;;22.36;43.97;100488.69;7309310;19;129117;-38
2023/05/18 07:54:49;;;;;;;;;;;;;;;22.36;44.75;100496.53;7311766;19;130491;-38
2023/05/18 07:57:15;;;;;;;;;;;;;;;22.25;44.65;100472.97;7311339;19;129372;-38
2023/05/18 07:59:40;;;;;;;;;;;;;;;22.36;44.57;100496.53;7309709;19;130078;-39
2023/05/18 08:02:06;;;;;;;;;;;;;;;22.35;44.31;100497.47;7309234;19;129654;-39
2023/05/18 08:04:31;;;;;;;;;;;;;;;22.31;44.43;100485.59;7309181;19;129436;-38
2023/05/18 08:06:59;;;;;;;;;;;;;;;22.30;44.53;100481.28;7310665;19;129155;-37
2023/05/18 08:09:24;;;;;;;;;;;;;;;22.38;44.50;100489.41;7310307;19;129184;-38
2023/05/18 08:11:50;;;;;;;;;;;;;;;22.25;44.00;100472.97;7309645;19;129926;-38
2023/05/18 08:14:16;;;;;;;;;;;;;;;22.37;44.54;100498.19;7309586;19;129503;-38
2023/05/18 08:16:41;;;;;;;;;;;;;;;22.36;43.93;100491.31;7310662;19;129378;-38
2023/05/18 08:19:06;;;;;;;;;;;;;;;22.36;44.57;100501.78;7310543;19;129176;-38
2023/05/18 08:21:32;;;;;;;;;;;;;;;22.39;43.90;100488.44;7309178;19;129658;-39
2023/05/18 08:23:57;;;;;;;;;;;;;;;22.36;44.30;100480.81;7316411;19;131298;-39
2023/05/18 08:26:23;;;;;;;;;;;;;;;22.35;44.32;100479.16;7314954;19;129095;-38
2023/05/18 08:28:48;;;;;;;;;;;;;;;22.33;44.35;100483.69;7316861;19;129098;-39
2023/05/18 08:31:14;;;;;;;;;;;;;;;22.39;44.14;100485.81;7316537;19;130708;-38
2023/05/18 08:33:40;;;;;;;;;;;;;;;22.37;43.98;100483.31;7316863;19;129726;-38
2023/05/18 08:36:06;;;;;;;;;;;;;;;22.37;44.14;100482.47;7316440;19;129212;-38
2023/05/18 08:38:32;;;;;;;;;;;;;;;22.37;44.41;100472.84;7316989;19;128949;-38
2023/05/18 08:41:09;;;;;;;;;;;;;;;22.35;44.16;100469.50;7315631;19;129677;-38
2023/05/18 08:43:36;;;;;;;;;;;;;;;22.35;44.44;100477.38;7315575;19;129730;-38
2023/05/18 08:46:11;;;;;;;;;;;;;;;22.35;44.11;100482.59;7317259;19;128906;-39
2023/05/18 08:48:36;;;;;;;;;;;;;;;22.37;44.40;100482.47;7315999;19;129858;-39
2023/05/18 08:51:03;;;;;;;;;;;;;;;22.36;43.97;100483.44;7315331;19;129525;-39
2023/05/18 08:53:29;;;;;;;;;;;;;;;22.35;43.90;100480.00;7316759;19;131469;-38
2023/05/18 08:55:56;;;;;;;;;;;;;;;22.33;44.02;100481.88;7316706;19;128991;-38
2023/05/18 08:58:26;;;;;;;;;;;;;;;22.36;44.44;100472.97;7317343;19;129175;-38
2023/05/18 09:00:53;;;;;;;;;;;;;;;22.39;44.32;100475.34;7314709;19;129207;-38
2023/05/18 09:03:18;;;;;;;;;;;;;;;22.33;44.51;100474.03;7315737;19;129505;-39
2023/05/18 09:05:45;;;;;;;;;;;;;;;22.37;44.01;100474.63;7315773;19;128979;-38
2023/05/18 09:08:11;;;;;;;;;;;;;;;22.35;43.94;100458.19;7315629;19;129838;-38
2023/05/18 09:10:37;;;;;;;;;;;;;;;22.39;44.09;100467.47;7314615;19;129291;-39
2023/05/18 09:13:04;;;;;;;;;;;;;;;22.33;44.25;100470.59;7316509;19;129672;-37
2023/05/18 09:15:29;;;;;;;;;;;;;;;22.34;43.79;100467.00;7315619;19;129081;-40
2023/05/18 09:17:54;;;;;;;;;;;;;;;22.32;44.21;100468.91;7316573;19;129786;-40
2023/05/18 09:20:20;;;;;;;;;;;;;;;22.37;44.51;100461.53;7315621;19;129560;-39
2023/05/18 09:22:48;;;;;;;;;;;;;;;22.38;44.23;100468.44;7311709;19;129434;-40
2023/05/18 09:25:15;;;;;;;;;;;;;;;22.37;44.46;100454.50;7313822;19;129486;-39
2023/05/18 09:27:40;;;;;;;;;;;;;;;22.43;43.83;100466.28;7316815;19;129165;-39
2023/05/18 09:30:09;;;;;;;;;;;;;;;22.42;44.21;100459.38;7316161;19;129850;-40
2023/05/18 09:32:35;;;;;;;;;;;;;;;22.40;44.04;100463.88;7310764;19;130396;-39
2023/05/18 09:35:05;;;;;;;;;;;;;;;22.39;44.00;100457.84;7312275;19;129549;-39
2023/05/18 09:37:31;;;;;;;;;;;;;;;22.37;44.06;100445.81;7314693;19;129422;-39
2023/05/18 09:39:58;;;;;;;;;;;;;;;22.40;43.83;100456.03;7314598;19;129214;-39
2023/05/18 09:42:33;;;;;;;;;;;;;;;22.37;44.08;100451.03;7311379;19;130388;-39
2023/05/18 09:44:58;;;;;;;;;;;;;;;22.36;44.10;100454.63;7314559;19;129640;-39
2023/05/18 09:47:26;;;;;;;;;;;;;;;22.44;43.87;100452.22;7315009;19;130045;-40
2023/05/18 09:49:51;;;;;;;;;;;;;;;22.41;43.81;100449.84;7314363;19;129763;-39
2023/05/18 09:52:16;;;;;;;;;;;;;;;22.40;44.61;100448.16;7310155;19;130216;-39
2023/05/18 09:54:42;;;;;;;;;;;;;;;22.35;44.55;100453.78;7314733;19;128867;-40
2023/05/18 09:57:07;;;;;;;;;;;;;;;22.38;44.54;100452.72;7314226;19;129053;-38
2023/05/18 09:59:35;;;;;;;;;;;;;;;22.40;44.13;100456.03;7314757;19;129133;-39
2023/05/18 10:02:01;;;;;;;;;;;;;;;22.35;44.19;100451.16;7313568;19;129590;-38
2023/05/18 10:04:42;;;;;;;;;;;;;;;22.23;44.52;100427.75;7312937;19;128967;-38
2023/05/18 10:07:09;;;;;;;;;;;;;;;22.37;44.54;100451.03;7313194;19;129409;-38
2023/05/18 10:09:34;;;;;;;;;;;;;;;22.26;44.09;100422.28;7314539;19;129827;-38
2023/05/18 10:12:00;;;;;;;;;;;;;;;22.39;44.15;100449.97;7312969;19;129140;-38
2023/05/18 10:14:29;;;;;;;;;;;;;;;22.38;43.84;100452.72;7314299;19;129588;-39
2023/05/18 10:16:54;;;;;;;;;;;;;;;22.36;44.48;100442.34;7313690;19;129587;-38
2023/05/18 10:19:20;;;;;;;;;;;;;;;22.41;43.80;100448.03;7311953;19;129283;-38
2023/05/18 10:21:45;;;;;;;;;;;;;;;22.42;44.44;100448.88;7309082;19;129336;-38
2023/05/18 10:24:13;;;;;;;;;;;;;;;22.43;44.10;100440.91;7312938;19;129423;-39
2023/05/18 10:26:40;;;;;;;;;;;;;;;22.41;43.81;100445.41;7313880;19;129916;-38
2023/05/18 10:29:06;;;;;;;;;;;;;;;22.42;44.19;100438.41;7313892;19;129195;-39
2023/05/18 10:31:34;;;;;;;;;;;;;;;22.37;44.14;100438.78;7313069;19;129456;-38
2023/05/18 10:33:59;;;;;;;;;;;;;;;22.41;44.32;100432.31;7314061;19;129082;-38
2023/05/18 10:36:28;;;;;;;;;;;;;;;22.42;44.44;100430.53;7309745;19;131279;-38
2023/05/18 10:38:55;;;;;;;;;;;;;;;22.42;43.93;100428.75;7313890;19;129232;-38
2023/05/18 10:41:21;;;;;;;;;;;;;;;22.37;44.15;100430.91;7311552;19;131052;-39
2023/05/18 10:43:47;;;;;;;;;;;;;;;22.37;43.70;100414.38;7312433;19;129624;-38
2023/05/18 10:46:14;;;;;;;;;;;;;;;22.38;43.84;100426.53;7310297;19;129735;-38
2023/05/18 10:48:41;;;;;;;;;;;;;;;22.41;43.77;100421.84;7313644;19;129202;-39
2023/05/18 10:51:07;;;;;;;;;;;;;;;22.41;44.14;100421.03;7312456;19;130463;-39
2023/05/18 10:53:32;;;;;;;;;;;;;;;22.42;43.78;100422.69;7313190;19;130233;-38
2023/05/18 10:55:58;;;;;;;;;;;;;;;22.44;44.07;100423.38;7313391;19;129704;-38
2023/05/18 10:58:26;;;;;;;;;;;;;;;22.38;43.91;100418.66;7312923;19;129170;-39
2023/05/18 11:00:56;;;;;;;;;;;;;;;22.41;44.32;100421.03;7312384;19;129661;-38
2023/05/18 11:03:24;;;;;;;;;;;;;;;22.42;43.88;100422.69;7312355;19;129152;-38
2023/05/18 11:05:51;;;;;;;;;;;;;;;22.28;44.22;100394.97;7312116;19;129851;-37
2023/05/18 11:08:26;;;;;;;;;;;;;;;22.39;44.30;100412.44;7312926;19;129635;-38
2023/05/18 11:10:58;;;;;;;;;;;;;;;22.35;44.38;100413.66;7311553;19;129384;-38
2023/05/18 11:13:27;;;;;;;;;;;;;;;22.38;43.71;100402.94;7313976;19;129387;-38
2023/05/18 11:15:52;;;;;;;;;;;;;;;22.40;44.54;100408.88;7311704;19;129328;-39
2023/05/18 11:18:17;;;;;;;;;;;;;;;22.31;44.42;100405.22;7311828;19;129072;-39
2023/05/18 11:20:44;;;;;;;;;;;;;;;22.40;43.97;100411.50;7312008;19;129525;-38
2023/05/18 11:23:09;;;;;;;;;;;;;;;22.44;44.07;100408.50;7313307;19;128962;-38
2023/05/18 11:25:38;;;;;;;;;;;;;;;22.43;44.00;100408.63;7308322;19;129439;-38
2023/05/18 11:28:04;;;;;;;;;;;;;;;22.36;44.44;100407.47;7313113;19;129278;-38
2023/05/18 11:30:43;;;;;;;;;;;;;;;22.32;43.78;100385.94;7311168;19;129973;-37
2023/05/18 11:33:10;;;;;;;;;;;;;;;22.41;44.33;100402.69;7312145;19;129397;-38
2023/05/18 11:35:54;;;;;;;;;;;;;;;22.38;44.44;100390.66;7312095;19;129628;-40
2023/05/18 11:38:20;;;;;;;;;;;;;;;22.40;44.53;100393.16;7311763;19;129495;-40
2023/05/18 11:40:48;;;;;;;;;;;;;;;22.46;44.31;100392.66;7311485;19;129134;-41
2023/05/18 11:43:20;;;;;;;;;;;;;;;22.39;44.07;100391.50;7311385;19;129419;-39
2023/05/18 11:45:57;;;;;;;;;;;;;;;22.42;44.15;100393.84;7311043;19;128878;-41
2023/05/18 11:48:28;;;;;;;;;;;;;;;22.43;44.22;100385.06;7312191;19;129350;-41
2023/05/18 11:50:54;;;;;;;;;;;;;;;22.38;44.16;100398.50;7310376;19;130074;-42
2023/05/18 11:53:23;;;;;;;;;;;;;;;22.36;43.66;100394.38;7311373;19;128954;-41
2023/05/18 11:55:50;;;;;;;;;;;;;;;22.42;44.14;100396.47;7311364;19;129281;-42
2023/05/18 11:58:19;;;;;;;;;;;;;;;22.43;44.12;100390.31;7317796;19;129500;-42
2023/05/18 12:00:45;;;;;;;;;;;;;;;22.41;44.30;100394.81;7317078;19;129163;-39
2023/05/18 12:03:11;;;;;;;;;;;;;;;22.41;44.35;100389.59;7317502;19;130206;-40
2023/05/18 12:05:37;;;;;;;;;;;;;;;22.46;44.26;100392.66;7315256;19;129887;-39
2023/05/18 12:08:02;;;;;;;;;;;;;;;22.29;44.00;100370.47;7318690;19;129687;-42
2023/05/18 12:10:28;;;;;;;;;;;;;;;22.44;44.28;100384.94;7316192;19;130763;-42
2023/05/18 12:12:53;;;;;;;;;;;;;;;22.43;43.98;100392.91;7315696;19;129316;-41
2023/05/18 12:15:23;;;;;;;;;;;;;;;22.41;43.75;100389.59;7317878;19;129200;-38
2023/05/18 12:17:49;;;;;;;;;;;;;;;22.44;44.26;100391.94;7317257;19;129631;-42
2023/05/18 12:20:18;;;;;;;;;;;;;;;22.41;43.82;100389.59;7317103;19;129763;-41
2023/05/18 12:22:44;;;;;;;;;;;;;;;22.29;44.28;100369.63;7314088;19;129176;-40
2023/05/18 12:25:10;;;;;;;;;;;;;;;22.45;44.59;100380.50;7315334;19;129248;-42